sensor_id;sensor_type;location;lat;lon;timestamp;P1;durP1;ratioP1;P2;durP2;ratioP2
19285;SDS011;9776;50.798;6.430;2023-02-28T00:01:44;3.10;;;2.90;;
19285;SDS011;9776;50.798;6.430;2023-02-28T00:04:23;3.30;;;3.10;;
19285;SDS011;9776;50.798;6.430;2023-02-28T00:06:57;2.50;;;2.40;;
19285;SDS011;9776;50.798;6.430;2023-02-28T00:09:31;2.90;;;2.70;;
19285;SDS011;9776;50.798;6.430;2023-02-28T00:12:08;2.90;;;2.70;;
19285;SDS011;9776;50.798;6.430;2023-02-28T00:14:43;2.93;;;2.73;;
19285;SDS011;9776;50.798;6.430;2023-02-28T00:17:16;2.67;;;2.47;;
19285;SDS011;9776;50.798;6.430;2023-02-28T00:20:01;2.80;;;2.60;;
19285;SDS011;9776;50.798;6.430;2023-02-28T00:22:42;2.60;;;2.50;;
19285;SDS011;9776;50.798;6.430;2023-02-28T00:25:20;2.70;;;2.60;;
19285;SDS011;9776;50.798;6.430;2023-02-28T00:27:58;2.90;;;2.33;;
19285;SDS011;9776;50.798;6.430;2023-02-28T00:30:34;2.87;;;2.77;;
19285;SDS011;9776;50.798;6.430;2023-02-28T00:33:04;2.97;;;2.77;;
19285;SDS011;9776;50.798;6.430;2023-02-28T00:35:41;2.70;;;2.50;;
19285;SDS011;9776;50.798;6.430;2023-02-28T00:38:27;2.90;;;2.70;;
19285;SDS011;9776;50.798;6.430;2023-02-28T00:40:59;2.60;;;2.50;;
19285;SDS011;9776;50.798;6.430;2023-02-28T00:43:36;3.00;;;2.80;;
19285;SDS011;9776;50.798;6.430;2023-02-28T00:46:09;2.90;;;2.70;;
19285;SDS011;9776;50.798;6.430;2023-02-28T00:48:47;2.90;;;2.70;;
19285;SDS011;9776;50.798;6.430;2023-02-28T00:52:00;2.77;;;2.57;;
19285;SDS011;9776;50.798;6.430;2023-02-28T00:54:36;2.70;;;2.50;;
19285;SDS011;9776;50.798;6.430;2023-02-28T00:57:14;2.77;;;2.57;;
19285;SDS011;9776;50.798;6.430;2023-02-28T00:59:50;2.80;;;2.60;;
19285;SDS011;9776;50.798;6.430;2023-02-28T01:02:32;2.93;;;2.73;;
19285;SDS011;9776;50.798;6.430;2023-02-28T01:05:11;3.00;;;2.70;;
19285;SDS011;9776;50.798;6.430;2023-02-28T01:07:44;3.13;;;2.93;;
19285;SDS011;9776;50.798;6.430;2023-02-28T01:10:24;2.70;;;2.50;;
19285;SDS011;9776;50.798;6.430;2023-02-28T01:13:00;2.80;;;2.60;;
19285;SDS011;9776;50.798;6.430;2023-02-28T01:15:34;2.80;;;2.60;;
19285;SDS011;9776;50.798;6.430;2023-02-28T01:18:08;2.93;;;2.50;;
19285;SDS011;9776;50.798;6.430;2023-02-28T01:20:49;3.10;;;2.90;;
19285;SDS011;9776;50.798;6.430;2023-02-28T01:23:38;2.67;;;2.57;;
19285;SDS011;9776;50.798;6.430;2023-02-28T01:26:24;3.43;;;2.97;;
19285;SDS011;9776;50.798;6.430;2023-02-28T01:28:57;3.13;;;2.93;;
19285;SDS011;9776;50.798;6.430;2023-02-28T01:31:35;2.73;;;2.50;;
19285;SDS011;9776;50.798;6.430;2023-02-28T01:34:09;2.60;;;2.50;;
19285;SDS011;9776;50.798;6.430;2023-02-28T01:36:47;2.67;;;2.57;;
19285;SDS011;9776;50.798;6.430;2023-02-28T01:39:19;2.80;;;2.60;;
19285;SDS011;9776;50.798;6.430;2023-02-28T01:41:59;2.90;;;2.57;;
19285;SDS011;9776;50.798;6.430;2023-02-28T01:45:01;2.77;;;2.57;;
19285;SDS011;9776;50.798;6.430;2023-02-28T01:47:51;2.77;;;2.57;;
19285;SDS011;9776;50.798;6.430;2023-02-28T01:50:28;3.37;;;2.57;;
19285;SDS011;9776;50.798;6.430;2023-02-28T01:53:09;2.80;;;2.60;;
19285;SDS011;9776;50.798;6.430;2023-02-28T01:56:01;2.47;;;2.37;;
19285;SDS011;9776;50.798;6.430;2023-02-28T01:58:53;2.40;;;2.30;;
19285;SDS011;9776;50.798;6.430;2023-02-28T02:01:36;2.73;;;2.63;;
19285;SDS011;9776;50.798;6.430;2023-02-28T02:04:12;3.00;;;2.80;;
19285;SDS011;9776;50.798;6.430;2023-02-28T02:06:45;2.57;;;2.47;;
19285;SDS011;9776;50.798;6.430;2023-02-28T02:09:28;2.93;;;2.73;;
19285;SDS011;9776;50.798;6.430;2023-02-28T02:12:04;2.67;;;2.47;;
19285;SDS011;9776;50.798;6.430;2023-02-28T02:14:54;2.27;;;2.17;;
19285;SDS011;9776;50.798;6.430;2023-02-28T02:17:45;3.10;;;2.90;;
19285;SDS011;9776;50.798;6.430;2023-02-28T02:20:37;2.70;;;2.60;;
19285;SDS011;9776;50.798;6.430;2023-02-28T02:23:35;2.80;;;2.70;;
19285;SDS011;9776;50.798;6.430;2023-02-28T02:26:43;2.50;;;2.40;;
19285;SDS011;9776;50.798;6.430;2023-02-28T02:29:43;2.80;;;2.60;;
19285;SDS011;9776;50.798;6.430;2023-02-28T02:35:47;2.73;;;2.63;;
19285;SDS011;9776;50.798;6.430;2023-02-28T02:38:29;2.33;;;2.23;;
19285;SDS011;9776;50.798;6.430;2023-02-28T02:41:17;2.93;;;2.73;;
19285;SDS011;9776;50.798;6.430;2023-02-28T02:43:58;2.47;;;2.37;;
19285;SDS011;9776;50.798;6.430;2023-02-28T02:46:43;2.83;;;2.63;;
19285;SDS011;9776;50.798;6.430;2023-02-28T02:49:19;2.63;;;2.53;;
19285;SDS011;9776;50.798;6.430;2023-02-28T02:52:08;2.97;;;2.77;;
19285;SDS011;9776;50.798;6.430;2023-02-28T02:54:48;2.40;;;2.30;;
19285;SDS011;9776;50.798;6.430;2023-02-28T02:57:29;2.77;;;2.57;;
19285;SDS011;9776;50.798;6.430;2023-02-28T03:00:08;2.97;;;2.77;;
19285;SDS011;9776;50.798;6.430;2023-02-28T03:02:51;2.97;;;2.83;;
19285;SDS011;9776;50.798;6.430;2023-02-28T03:05:27;2.93;;;2.70;;
19285;SDS011;9776;50.798;6.430;2023-02-28T03:08:19;3.10;;;2.80;;
19285;SDS011;9776;50.798;6.430;2023-02-28T03:10:51;2.50;;;2.40;;
19285;SDS011;9776;50.798;6.430;2023-02-28T03:13:36;2.90;;;2.70;;
19285;SDS011;9776;50.798;6.430;2023-02-28T03:16:54;2.83;;;2.73;;
19285;SDS011;9776;50.798;6.430;2023-02-28T03:19:52;3.40;;;3.20;;
19285;SDS011;9776;50.798;6.430;2023-02-28T03:22:33;3.10;;;2.90;;
19285;SDS011;9776;50.798;6.430;2023-02-28T03:25:18;2.77;;;2.57;;
19285;SDS011;9776;50.798;6.430;2023-02-28T03:27:55;2.87;;;2.77;;
19285;SDS011;9776;50.798;6.430;2023-02-28T03:30:31;3.17;;;2.97;;
19285;SDS011;9776;50.798;6.430;2023-02-28T03:33:06;3.00;;;2.80;;
19285;SDS011;9776;50.798;6.430;2023-02-28T03:35:38;3.00;;;2.80;;
19285;SDS011;9776;50.798;6.430;2023-02-28T03:38:09;2.57;;;2.43;;
19285;SDS011;9776;50.798;6.430;2023-02-28T03:40:44;3.30;;;3.00;;
19285;SDS011;9776;50.798;6.430;2023-02-28T03:43:17;2.90;;;2.70;;
19285;SDS011;9776;50.798;6.430;2023-02-28T03:45:45;3.07;;;2.87;;
19285;SDS011;9776;50.798;6.430;2023-02-28T03:48:15;2.80;;;2.50;;
19285;SDS011;9776;50.798;6.430;2023-02-28T03:50:48;2.60;;;2.50;;
19285;SDS011;9776;50.798;6.430;2023-02-28T03:53:22;2.90;;;2.70;;
19285;SDS011;9776;50.798;6.430;2023-02-28T03:55:54;3.10;;;2.90;;
19285;SDS011;9776;50.798;6.430;2023-02-28T03:58:26;2.90;;;2.70;;
19285;SDS011;9776;50.798;6.430;2023-02-28T04:00:59;3.50;;;3.30;;
19285;SDS011;9776;50.798;6.430;2023-02-28T04:03:33;3.10;;;2.90;;
19285;SDS011;9776;50.798;6.430;2023-02-28T04:06:01;3.30;;;3.10;;
19285;SDS011;9776;50.798;6.430;2023-02-28T04:08:29;2.73;;;2.57;;
19285;SDS011;9776;50.798;6.430;2023-02-28T04:11:00;2.87;;;2.67;;
19285;SDS011;9776;50.798;6.430;2023-02-28T04:13:31;2.87;;;2.70;;
19285;SDS011;9776;50.798;6.430;2023-02-28T04:15:57;3.03;;;2.83;;
19285;SDS011;9776;50.798;6.430;2023-02-28T04:18:24;3.00;;;2.80;;
19285;SDS011;9776;50.798;6.430;2023-02-28T04:20:51;3.10;;;2.90;;
19285;SDS011;9776;50.798;6.430;2023-02-28T04:23:18;3.13;;;2.93;;
19285;SDS011;9776;50.798;6.430;2023-02-28T04:25:45;3.37;;;3.17;;
19285;SDS011;9776;50.798;6.430;2023-02-28T04:28:14;3.23;;;3.03;;
19285;SDS011;9776;50.798;6.430;2023-02-28T04:30:41;3.07;;;2.87;;
19285;SDS011;9776;50.798;6.430;2023-02-28T04:33:07;2.97;;;2.77;;
19285;SDS011;9776;50.798;6.430;2023-02-28T04:35:34;2.90;;;2.80;;
19285;SDS011;9776;50.798;6.430;2023-02-28T04:38:01;3.07;;;2.87;;
19285;SDS011;9776;50.798;6.430;2023-02-28T04:40:28;3.50;;;3.30;;
19285;SDS011;9776;50.798;6.430;2023-02-28T04:42:55;3.20;;;2.90;;
19285;SDS011;9776;50.798;6.430;2023-02-28T04:45:26;3.37;;;3.13;;
19285;SDS011;9776;50.798;6.430;2023-02-28T04:47:56;4.47;;;4.17;;
19285;SDS011;9776;50.798;6.430;2023-02-28T04:50:24;3.73;;;3.43;;
19285;SDS011;9776;50.798;6.430;2023-02-28T04:52:58;4.53;;;3.53;;
19285;SDS011;9776;50.798;6.430;2023-02-28T04:55:35;3.60;;;2.87;;
19285;SDS011;9776;50.798;6.430;2023-02-28T04:58:05;3.30;;;3.10;;
19285;SDS011;9776;50.798;6.430;2023-02-28T05:00:35;3.20;;;3.00;;
19285;SDS011;9776;50.798;6.430;2023-02-28T05:03:02;3.43;;;3.23;;
19285;SDS011;9776;50.798;6.430;2023-02-28T05:05:29;3.27;;;3.07;;
19285;SDS011;9776;50.798;6.430;2023-02-28T05:08:00;3.83;;;3.53;;
19285;SDS011;9776;50.798;6.430;2023-02-28T05:10:35;3.00;;;2.80;;
19285;SDS011;9776;50.798;6.430;2023-02-28T05:13:02;2.90;;;2.80;;
19285;SDS011;9776;50.798;6.430;2023-02-28T05:15:29;2.90;;;2.80;;
19285;SDS011;9776;50.798;6.430;2023-02-28T05:17:57;3.50;;;3.30;;
19285;SDS011;9776;50.798;6.430;2023-02-28T05:20:24;3.43;;;3.13;;
19285;SDS011;9776;50.798;6.430;2023-02-28T05:22:51;3.33;;;3.00;;
19285;SDS011;9776;50.798;6.430;2023-02-28T05:25:19;3.60;;;3.30;;
19285;SDS011;9776;50.798;6.430;2023-02-28T05:27:47;3.40;;;3.20;;
19285;SDS011;9776;50.798;6.430;2023-02-28T05:30:15;2.87;;;2.77;;
19285;SDS011;9776;50.798;6.430;2023-02-28T05:32:49;3.40;;;3.20;;
19285;SDS011;9776;50.798;6.430;2023-02-28T05:35:20;3.30;;;3.10;;
19285;SDS011;9776;50.798;6.430;2023-02-28T05:40:22;3.27;;;3.00;;
19285;SDS011;9776;50.798;6.430;2023-02-28T05:42:49;3.33;;;3.13;;
19285;SDS011;9776;50.798;6.430;2023-02-28T05:45:17;3.13;;;2.93;;
19285;SDS011;9776;50.798;6.430;2023-02-28T05:47:44;2.93;;;2.73;;
19285;SDS011;9776;50.798;6.430;2023-02-28T05:50:11;3.50;;;3.30;;
19285;SDS011;9776;50.798;6.430;2023-02-28T05:52:40;3.40;;;3.20;;
19285;SDS011;9776;50.798;6.430;2023-02-28T05:55:07;3.70;;;3.40;;
19285;SDS011;9776;50.798;6.430;2023-02-28T05:57:35;3.57;;;3.37;;
19285;SDS011;9776;50.798;6.430;2023-02-28T06:00:06;3.80;;;3.50;;
19285;SDS011;9776;50.798;6.430;2023-02-28T06:02:33;3.70;;;3.40;;
19285;SDS011;9776;50.798;6.430;2023-02-28T06:05:00;4.20;;;3.90;;
19285;SDS011;9776;50.798;6.430;2023-02-28T06:07:27;3.83;;;3.53;;
19285;SDS011;9776;50.798;6.430;2023-02-28T06:09:55;3.60;;;3.40;;
19285;SDS011;9776;50.798;6.430;2023-02-28T06:12:22;5.43;;;4.00;;
19285;SDS011;9776;50.798;6.430;2023-02-28T06:14:50;4.93;;;4.53;;
19285;SDS011;9776;50.798;6.430;2023-02-28T06:17:17;3.80;;;3.60;;
19285;SDS011;9776;50.798;6.430;2023-02-28T06:19:44;3.97;;;3.77;;
19285;SDS011;9776;50.798;6.430;2023-02-28T06:22:13;4.43;;;4.13;;
19285;SDS011;9776;50.798;6.430;2023-02-28T06:24:42;4.10;;;3.80;;
19285;SDS011;9776;50.798;6.430;2023-02-28T06:27:17;4.80;;;4.40;;
19285;SDS011;9776;50.798;6.430;2023-02-28T06:29:45;4.73;;;4.33;;
19285;SDS011;9776;50.798;6.430;2023-02-28T06:32:12;4.30;;;4.00;;
19285;SDS011;9776;50.798;6.430;2023-02-28T06:34:45;4.27;;;3.87;;
19285;SDS011;9776;50.798;6.430;2023-02-28T06:37:12;3.40;;;3.20;;
19285;SDS011;9776;50.798;6.430;2023-02-28T06:39:39;3.53;;;3.30;;
19285;SDS011;9776;50.798;6.430;2023-02-28T06:42:08;4.10;;;3.80;;
19285;SDS011;9776;50.798;6.430;2023-02-28T06:44:38;3.60;;;3.30;;
19285;SDS011;9776;50.798;6.430;2023-02-28T06:47:11;4.03;;;3.80;;
19285;SDS011;9776;50.798;6.430;2023-02-28T06:49:38;6.37;;;4.83;;
19285;SDS011;9776;50.798;6.430;2023-02-28T06:52:06;5.73;;;5.30;;
19285;SDS011;9776;50.798;6.430;2023-02-28T06:54:34;6.27;;;5.67;;
19285;SDS011;9776;50.798;6.430;2023-02-28T06:57:04;6.93;;;6.33;;
19285;SDS011;9776;50.798;6.430;2023-02-28T06:59:31;6.73;;;6.20;;
19285;SDS011;9776;50.798;6.430;2023-02-28T07:01:59;6.47;;;5.87;;
19285;SDS011;9776;50.798;6.430;2023-02-28T07:04:27;7.47;;;6.77;;
19285;SDS011;9776;50.798;6.430;2023-02-28T07:06:55;6.83;;;6.33;;
19285;SDS011;9776;50.798;6.430;2023-02-28T07:09:22;6.53;;;5.93;;
19285;SDS011;9776;50.798;6.430;2023-02-28T07:11:57;6.63;;;5.93;;
19285;SDS011;9776;50.798;6.430;2023-02-28T07:14:26;5.43;;;5.03;;
19285;SDS011;9776;50.798;6.430;2023-02-28T07:16:53;5.10;;;4.70;;
19285;SDS011;9776;50.798;6.430;2023-02-28T07:19:21;4.97;;;4.63;;
19285;SDS011;9776;50.798;6.430;2023-02-28T07:21:48;4.97;;;4.63;;
19285;SDS011;9776;50.798;6.430;2023-02-28T07:24:15;4.70;;;4.40;;
19285;SDS011;9776;50.798;6.430;2023-02-28T07:26:43;4.10;;;3.80;;
19285;SDS011;9776;50.798;6.430;2023-02-28T07:29:13;4.47;;;4.10;;
19285;SDS011;9776;50.798;6.430;2023-02-28T07:31:42;4.83;;;4.53;;
19285;SDS011;9776;50.798;6.430;2023-02-28T07:34:09;4.30;;;4.00;;
19285;SDS011;9776;50.798;6.430;2023-02-28T07:36:38;4.70;;;4.30;;
19285;SDS011;9776;50.798;6.430;2023-02-28T07:39:05;4.17;;;3.87;;
19285;SDS011;9776;50.798;6.430;2023-02-28T07:41:31;4.40;;;4.10;;
19285;SDS011;9776;50.798;6.430;2023-02-28T07:44:08;4.10;;;3.80;;
19285;SDS011;9776;50.798;6.430;2023-02-28T07:46:34;5.87;;;3.80;;
19285;SDS011;9776;50.798;6.430;2023-02-28T07:49:01;4.50;;;4.20;;
19285;SDS011;9776;50.798;6.430;2023-02-28T07:51:29;3.50;;;3.30;;
19285;SDS011;9776;50.798;6.430;2023-02-28T07:53:57;3.83;;;3.63;;
19285;SDS011;9776;50.798;6.430;2023-02-28T07:56:24;3.90;;;3.60;;
19285;SDS011;9776;50.798;6.430;2023-02-28T07:58:54;3.77;;;3.50;;
19285;SDS011;9776;50.798;6.430;2023-02-28T08:01:23;3.40;;;3.20;;
19285;SDS011;9776;50.798;6.430;2023-02-28T08:03:52;3.60;;;3.33;;
19285;SDS011;9776;50.798;6.430;2023-02-28T08:06:20;4.03;;;3.73;;
19285;SDS011;9776;50.798;6.430;2023-02-28T08:08:48;3.70;;;3.50;;
19285;SDS011;9776;50.798;6.430;2023-02-28T08:11:18;3.50;;;3.30;;
19285;SDS011;9776;50.798;6.430;2023-02-28T08:13:45;3.67;;;3.43;;
19285;SDS011;9776;50.798;6.430;2023-02-28T08:16:14;3.23;;;3.03;;
19285;SDS011;9776;50.798;6.430;2023-02-28T08:18:46;3.43;;;3.23;;
19285;SDS011;9776;50.798;6.430;2023-02-28T08:21:13;3.20;;;3.00;;
19285;SDS011;9776;50.798;6.430;2023-02-28T08:23:39;3.20;;;2.97;;
19285;SDS011;9776;50.798;6.430;2023-02-28T08:26:07;3.20;;;3.00;;
19285;SDS011;9776;50.798;6.430;2023-02-28T08:28:36;2.93;;;2.73;;
19285;SDS011;9776;50.798;6.430;2023-02-28T08:31:06;3.03;;;2.83;;
19285;SDS011;9776;50.798;6.430;2023-02-28T08:33:34;3.10;;;2.90;;
19285;SDS011;9776;50.798;6.430;2023-02-28T08:36:01;3.07;;;2.90;;
19285;SDS011;9776;50.798;6.430;2023-02-28T08:38:28;3.30;;;3.10;;
19285;SDS011;9776;50.798;6.430;2023-02-28T08:40:57;2.87;;;2.67;;
19285;SDS011;9776;50.798;6.430;2023-02-28T08:43:25;2.80;;;2.70;;
19285;SDS011;9776;50.798;6.430;2023-02-28T08:45:54;2.40;;;2.30;;
19285;SDS011;9776;50.798;6.430;2023-02-28T08:48:22;2.70;;;2.50;;
19285;SDS011;9776;50.798;6.430;2023-02-28T08:50:54;2.90;;;2.70;;
19285;SDS011;9776;50.798;6.430;2023-02-28T08:53:22;2.40;;;2.30;;
19285;SDS011;9776;50.798;6.430;2023-02-28T08:55:56;2.57;;;2.37;;
19285;SDS011;9776;50.798;6.430;2023-02-28T08:58:27;2.40;;;2.30;;
19285;SDS011;9776;50.798;6.430;2023-02-28T09:00:55;2.40;;;2.30;;
19285;SDS011;9776;50.798;6.430;2023-02-28T09:03:22;2.47;;;2.30;;
19285;SDS011;9776;50.798;6.430;2023-02-28T09:05:53;2.60;;;2.50;;
19285;SDS011;9776;50.798;6.430;2023-02-28T09:08:21;2.30;;;2.20;;
19285;SDS011;9776;50.798;6.430;2023-02-28T09:10:55;2.40;;;2.30;;
19285;SDS011;9776;50.798;6.430;2023-02-28T09:13:23;2.60;;;2.40;;
19285;SDS011;9776;50.798;6.430;2023-02-28T09:15:50;2.60;;;2.40;;
19285;SDS011;9776;50.798;6.430;2023-02-28T09:18:20;2.80;;;2.60;;
19285;SDS011;9776;50.798;6.430;2023-02-28T09:20:52;3.03;;;2.83;;
19285;SDS011;9776;50.798;6.430;2023-02-28T09:23:19;2.00;;;1.90;;
19285;SDS011;9776;50.798;6.430;2023-02-28T09:26:12;2.80;;;2.60;;
19285;SDS011;9776;50.798;6.430;2023-02-28T09:28:42;3.87;;;3.67;;
19285;SDS011;9776;50.798;6.430;2023-02-28T09:31:15;5.83;;;5.53;;
19285;SDS011;9776;50.798;6.430;2023-02-28T09:33:47;2.43;;;2.33;;
19285;SDS011;9776;50.798;6.430;2023-02-28T09:36:16;3.57;;;2.17;;
19285;SDS011;9776;50.798;6.430;2023-02-28T09:38:43;2.03;;;1.92;;
19285;SDS011;9776;50.798;6.430;2023-02-28T09:41:12;1.90;;;1.80;;
19285;SDS011;9776;50.798;6.430;2023-02-28T09:43:43;1.88;;;1.77;;
19285;SDS011;9776;50.798;6.430;2023-02-28T09:46:19;2.22;;;2.13;;
19285;SDS011;9776;50.798;6.430;2023-02-28T09:49:03;2.25;;;2.15;;
19285;SDS011;9776;50.798;6.430;2023-02-28T09:51:36;2.05;;;1.85;;
19285;SDS011;9776;50.798;6.430;2023-02-28T09:54:11;1.75;;;1.65;;
19285;SDS011;9776;50.798;6.430;2023-02-28T09:56:44;1.80;;;1.70;;
19285;SDS011;9776;50.798;6.430;2023-02-28T09:59:18;1.75;;;1.65;;
19285;SDS011;9776;50.798;6.430;2023-02-28T10:02:00;2.00;;;1.90;;
19285;SDS011;9776;50.798;6.430;2023-02-28T10:04:37;1.75;;;1.65;;
19285;SDS011;9776;50.798;6.430;2023-02-28T10:07:16;1.80;;;1.70;;
19285;SDS011;9776;50.798;6.430;2023-02-28T10:09:50;1.75;;;1.65;;
19285;SDS011;9776;50.798;6.430;2023-02-28T10:12:21;1.58;;;1.50;;
19285;SDS011;9776;50.798;6.430;2023-02-28T10:14:49;1.73;;;1.63;;
19285;SDS011;9776;50.798;6.430;2023-02-28T10:17:21;1.25;;;1.20;;
19285;SDS011;9776;50.798;6.430;2023-02-28T10:19:53;1.60;;;1.50;;
19285;SDS011;9776;50.798;6.430;2023-02-28T10:22:26;1.70;;;1.60;;
19285;SDS011;9776;50.798;6.430;2023-02-28T10:25:00;1.38;;;1.30;;
19285;SDS011;9776;50.798;6.430;2023-02-28T10:27:31;1.15;;;1.15;;
19285;SDS011;9776;50.798;6.430;2023-02-28T10:29:59;1.55;;;1.45;;
19285;SDS011;9776;50.798;6.430;2023-02-28T10:32:27;1.35;;;1.35;;
19285;SDS011;9776;50.798;6.430;2023-02-28T10:34:59;1.40;;;1.38;;
19285;SDS011;9776;50.798;6.430;2023-02-28T10:37:27;2.75;;;1.48;;
19285;SDS011;9776;50.798;6.430;2023-02-28T10:39:54;1.70;;;1.60;;
19285;SDS011;9776;50.798;6.430;2023-02-28T10:42:22;1.33;;;1.33;;
19285;SDS011;9776;50.798;6.430;2023-02-28T10:45:04;1.85;;;1.75;;
19285;SDS011;9776;50.798;6.430;2023-02-28T10:47:33;1.95;;;1.85;;
19285;SDS011;9776;50.798;6.430;2023-02-28T10:50:03;1.70;;;1.60;;
19285;SDS011;9776;50.798;6.430;2023-02-28T10:52:35;1.33;;;1.33;;
19285;SDS011;9776;50.798;6.430;2023-02-28T10:55:15;1.73;;;1.63;;
19285;SDS011;9776;50.798;6.430;2023-02-28T10:57:47;1.50;;;1.40;;
19285;SDS011;9776;50.798;6.430;2023-02-28T11:00:14;1.10;;;1.10;;
19285;SDS011;9776;50.798;6.430;2023-02-28T11:02:43;1.35;;;1.25;;
19285;SDS011;9776;50.798;6.430;2023-02-28T11:05:25;1.40;;;1.30;;
19285;SDS011;9776;50.798;6.430;2023-02-28T11:07:55;1.50;;;1.40;;
19285;SDS011;9776;50.798;6.430;2023-02-28T11:10:23;1.60;;;1.50;;
19285;SDS011;9776;50.798;6.430;2023-02-28T11:12:55;1.38;;;1.35;;
19285;SDS011;9776;50.798;6.430;2023-02-28T11:15:23;1.30;;;1.20;;
19285;SDS011;9776;50.798;6.430;2023-02-28T11:17:55;1.17;;;1.10;;
19285;SDS011;9776;50.798;6.430;2023-02-28T11:20:26;1.30;;;1.27;;
19285;SDS011;9776;50.798;6.430;2023-02-28T11:22:56;1.20;;;1.20;;
19285;SDS011;9776;50.798;6.430;2023-02-28T11:25:24;1.25;;;1.20;;
19285;SDS011;9776;50.798;6.430;2023-02-28T11:27:53;1.30;;;1.20;;
19285;SDS011;9776;50.798;6.430;2023-02-28T11:30:25;1.38;;;1.30;;
19285;SDS011;9776;50.798;6.430;2023-02-28T11:32:53;1.40;;;1.30;;
19285;SDS011;9776;50.798;6.430;2023-02-28T11:35:22;1.33;;;1.30;;
19285;SDS011;9776;50.798;6.430;2023-02-28T11:37:56;1.33;;;1.23;;
19285;SDS011;9776;50.798;6.430;2023-02-28T11:40:26;1.40;;;1.30;;
19285;SDS011;9776;50.798;6.430;2023-02-28T11:42:59;1.27;;;1.20;;
19285;SDS011;9776;50.798;6.430;2023-02-28T11:45:42;1.40;;;1.30;;
19285;SDS011;9776;50.798;6.430;2023-02-28T11:48:17;1.33;;;1.23;;
19285;SDS011;9776;50.798;6.430;2023-02-28T11:50:52;1.50;;;1.40;;
19285;SDS011;9776;50.798;6.430;2023-02-28T11:53:31;1.17;;;1.13;;
19285;SDS011;9776;50.798;6.430;2023-02-28T11:56:12;1.30;;;1.20;;
19285;SDS011;9776;50.798;6.430;2023-02-28T11:58:47;1.50;;;1.40;;
19285;SDS011;9776;50.798;6.430;2023-02-28T12:01:33;2.13;;;1.08;;
19285;SDS011;9776;50.798;6.430;2023-02-28T12:04:13;0.90;;;0.90;;
19285;SDS011;9776;50.798;6.430;2023-02-28T12:06:50;1.08;;;1.08;;
19285;SDS011;9776;50.798;6.430;2023-02-28T12:09:34;1.08;;;1.08;;
19285;SDS011;9776;50.798;6.430;2023-02-28T12:12:13;1.00;;;1.00;;
19285;SDS011;9776;50.798;6.430;2023-02-28T12:17:59;1.25;;;1.20;;
19285;SDS011;9776;50.798;6.430;2023-02-28T12:20:36;1.10;;;1.10;;
19285;SDS011;9776;50.798;6.430;2023-02-28T12:23:19;1.40;;;1.30;;
19285;SDS011;9776;50.798;6.430;2023-02-28T12:26:02;1.13;;;1.13;;
19285;SDS011;9776;50.798;6.430;2023-02-28T12:28:35;1.10;;;1.05;;
19285;SDS011;9776;50.798;6.430;2023-02-28T12:31:10;1.20;;;1.20;;
19285;SDS011;9776;50.798;6.430;2023-02-28T12:33:40;0.95;;;0.95;;
19285;SDS011;9776;50.798;6.430;2023-02-28T12:36:11;0.90;;;0.90;;
19285;SDS011;9776;50.798;6.430;2023-02-28T12:38:44;1.08;;;1.00;;
19285;SDS011;9776;50.798;6.430;2023-02-28T12:41:15;1.30;;;1.20;;
19285;SDS011;9776;50.798;6.430;2023-02-28T12:43:46;0.95;;;0.85;;
19285;SDS011;9776;50.798;6.430;2023-02-28T12:46:17;1.00;;;1.00;;
19285;SDS011;9776;50.798;6.430;2023-02-28T12:48:48;0.82;;;0.82;;
19285;SDS011;9776;50.798;6.430;2023-02-28T12:51:20;1.00;;;1.00;;
19285;SDS011;9776;50.798;6.430;2023-02-28T12:53:52;1.00;;;1.00;;
19285;SDS011;9776;50.798;6.430;2023-02-28T12:56:31;0.90;;;0.90;;
19285;SDS011;9776;50.798;6.430;2023-02-28T12:59:07;1.20;;;1.10;;
19285;SDS011;9776;50.798;6.430;2023-02-28T13:08:02;1.00;;;1.00;;
19285;SDS011;9776;50.798;6.430;2023-02-28T13:10:39;1.02;;;1.02;;
19285;SDS011;9776;50.798;6.430;2023-02-28T13:13:11;1.00;;;1.00;;
19285;SDS011;9776;50.798;6.430;2023-02-28T13:15:40;1.52;;;1.42;;
19285;SDS011;9776;50.798;6.430;2023-02-28T13:18:27;1.20;;;1.10;;
19285;SDS011;9776;50.798;6.430;2023-02-28T13:20:57;1.20;;;1.20;;
19285;SDS011;9776;50.798;6.430;2023-02-28T13:23:38;1.65;;;1.50;;
19285;SDS011;9776;50.798;6.430;2023-02-28T13:26:08;1.40;;;1.30;;
19285;SDS011;9776;50.798;6.430;2023-02-28T13:35:14;1.65;;;1.55;;
19285;SDS011;9776;50.798;6.430;2023-02-28T13:44:15;1.45;;;1.35;;
19285;SDS011;9776;50.798;6.430;2023-02-28T13:49:54;1.23;;;1.20;;
19285;SDS011;9776;50.798;6.430;2023-02-28T13:52:43;1.30;;;1.20;;
19285;SDS011;9776;50.798;6.430;2023-02-28T13:55:22;1.20;;;1.20;;
19285;SDS011;9776;50.798;6.430;2023-02-28T13:58:04;1.80;;;1.20;;
19285;SDS011;9776;50.798;6.430;2023-02-28T14:00:45;1.52;;;1.42;;
19285;SDS011;9776;50.798;6.430;2023-02-28T14:03:42;1.85;;;1.75;;
19285;SDS011;9776;50.798;6.430;2023-02-28T14:06:20;1.63;;;1.52;;
19285;SDS011;9776;50.798;6.430;2023-02-28T14:08:55;1.70;;;1.60;;
19285;SDS011;9776;50.798;6.430;2023-02-28T14:11:27;1.90;;;1.80;;
19285;SDS011;9776;50.798;6.430;2023-02-28T14:13:56;1.92;;;1.83;;
19285;SDS011;9776;50.798;6.430;2023-02-28T14:16:25;1.83;;;1.73;;
19285;SDS011;9776;50.798;6.430;2023-02-28T14:18:56;1.80;;;1.70;;
19285;SDS011;9776;50.798;6.430;2023-02-28T14:21:27;1.70;;;1.60;;
19285;SDS011;9776;50.798;6.430;2023-02-28T14:24:01;1.85;;;1.75;;
19285;SDS011;9776;50.798;6.430;2023-02-28T14:26:51;1.73;;;1.63;;
19285;SDS011;9776;50.798;6.430;2023-02-28T14:29:39;1.85;;;1.75;;
19285;SDS011;9776;50.798;6.430;2023-02-28T14:32:27;2.00;;;1.90;;
19285;SDS011;9776;50.798;6.430;2023-02-28T14:35:01;1.90;;;1.80;;
19285;SDS011;9776;50.798;6.430;2023-02-28T14:37:32;1.80;;;1.70;;
19285;SDS011;9776;50.798;6.430;2023-02-28T14:40:04;2.10;;;2.00;;
19285;SDS011;9776;50.798;6.430;2023-02-28T14:42:38;1.95;;;1.85;;
19285;SDS011;9776;50.798;6.430;2023-02-28T14:45:17;1.83;;;1.73;;
19285;SDS011;9776;50.798;6.430;2023-02-28T14:47:46;1.80;;;1.70;;
19285;SDS011;9776;50.798;6.430;2023-02-28T14:50:18;1.80;;;1.70;;
19285;SDS011;9776;50.798;6.430;2023-02-28T14:52:46;2.00;;;1.90;;
19285;SDS011;9776;50.798;6.430;2023-02-28T14:55:13;2.13;;;2.03;;
19285;SDS011;9776;50.798;6.430;2023-02-28T14:57:50;2.20;;;2.10;;
19285;SDS011;9776;50.798;6.430;2023-02-28T15:00:20;2.70;;;2.50;;
19285;SDS011;9776;50.798;6.430;2023-02-28T15:02:52;2.05;;;1.95;;
19285;SDS011;9776;50.798;6.430;2023-02-28T15:05:22;2.15;;;2.05;;
19285;SDS011;9776;50.798;6.430;2023-02-28T15:08:00;2.00;;;1.90;;
19285;SDS011;9776;50.798;6.430;2023-02-28T15:10:30;2.22;;;2.13;;
19285;SDS011;9776;50.798;6.430;2023-02-28T15:12:57;2.00;;;1.90;;
19285;SDS011;9776;50.798;6.430;2023-02-28T15:15:27;2.28;;;2.17;;
19285;SDS011;9776;50.798;6.430;2023-02-28T15:18:03;1.92;;;1.83;;
19285;SDS011;9776;50.798;6.430;2023-02-28T15:20:32;2.30;;;2.20;;
19285;SDS011;9776;50.798;6.430;2023-02-28T15:23:00;2.25;;;2.08;;
19285;SDS011;9776;50.798;6.430;2023-02-28T15:25:27;2.30;;;2.20;;
19285;SDS011;9776;50.798;6.430;2023-02-28T15:27:55;2.20;;;2.10;;
19285;SDS011;9776;50.798;6.430;2023-02-28T15:30:24;2.38;;;2.17;;
19285;SDS011;9776;50.798;6.430;2023-02-28T15:33:04;2.55;;;2.22;;
19285;SDS011;9776;50.798;6.430;2023-02-28T15:35:33;2.20;;;2.10;;
19285;SDS011;9776;50.798;6.430;2023-02-28T15:38:01;2.58;;;2.45;;
19285;SDS011;9776;50.798;6.430;2023-02-28T15:40:31;2.85;;;2.65;;
19285;SDS011;9776;50.798;6.430;2023-02-28T15:43:04;2.65;;;2.45;;
19285;SDS011;9776;50.798;6.430;2023-02-28T15:45:33;2.20;;;2.10;;
19285;SDS011;9776;50.798;6.430;2023-02-28T15:48:05;2.33;;;2.22;;
19285;SDS011;9776;50.798;6.430;2023-02-28T15:50:47;2.50;;;2.40;;
19285;SDS011;9776;50.798;6.430;2023-02-28T15:53:25;2.28;;;2.17;;
19285;SDS011;9776;50.798;6.430;2023-02-28T15:55:55;2.40;;;2.30;;
19285;SDS011;9776;50.798;6.430;2023-02-28T15:58:25;2.58;;;2.38;;
19285;SDS011;9776;50.798;6.430;2023-02-28T16:01:16;2.78;;;2.58;;
19285;SDS011;9776;50.798;6.430;2023-02-28T16:03:49;2.40;;;2.30;;
19285;SDS011;9776;50.798;6.430;2023-02-28T16:06:37;2.30;;;2.20;;
19285;SDS011;9776;50.798;6.430;2023-02-28T16:09:08;2.53;;;2.40;;
19285;SDS011;9776;50.798;6.430;2023-02-28T16:11:38;2.75;;;2.55;;